Time;durP1;ratioP1;P1;durP2;ratioP2;P2;SDS_P1;SDS_P2;PMS_P1;PMS_P2;Temp;Humidity;BMP_temperature;BMP_pressure;BME280_temperature;BME280_humidity;BME280_pressure;Samples;Min_cycle;Max_cycle;Signal;HPM_P1;HPM_P2
2023/02/17 00:00:34;;;;;;;19.30;10.80;;;;;;;-6.07;100.00;101022.83;105957;1257;60488;-55
2023/02/17 00:03:03;;;;;;;21.40;12.50;;;;;;;-5.96;100.00;101023.06;106062;1256;75326;-54
2023/02/17 00:05:32;;;;;;;17.00;10.40;;;;;;;-5.94;100.00;101019.46;105742;1257;66353;-55
2023/02/17 00:08:00;;;;;;;15.30;8.80;;;;;;;-5.95;100.00;101019.31;105813;1256;73917;-57
2023/02/17 00:10:29;;;;;;;18.30;10.70;;;;;;;-5.95;100.00;101016.26;105873;1254;60348;-57
2023/02/17 00:12:58;;;;;;;14.10;9.20;;;;;;;-5.89;100.00;101020.24;105804;1256;60442;-56
2023/02/17 00:15:26;;;;;;;16.10;9.30;;;;;;;-5.82;100.00;101019.95;105867;1254;74532;-55
2023/02/17 00:17:55;;;;;;;19.30;10.30;;;;;;;-5.73;100.00;101017.58;105846;1254;68104;-55
2023/02/17 00:20:24;;;;;;;17.80;11.40;;;;;;;-5.64;100.00;101008.26;105852;1254;72617;-56
2023/02/17 00:22:53;;;;;;;15.80;10.60;;;;;;;-5.55;100.00;101011.95;105725;1253;62090;-55
2023/02/17 00:25:21;;;;;;;18.70;10.50;;;;;;;-5.47;100.00;101000.79;105685;1254;61944;-55
2023/02/17 00:27:50;;;;;;;17.80;11.00;;;;;;;-5.39;100.00;100994.90;105913;1253;75420;-57
2023/02/17 00:30:19;;;;;;;17.50;10.30;;;;;;;-5.33;100.00;100993.95;105656;1259;66811;-58
2023/02/17 00:32:48;;;;;;;14.10;8.40;;;;;;;-5.28;100.00;100993.92;105878;1254;73852;-55
2023/02/17 00:35:16;;;;;;;19.30;10.90;;;;;;;-5.23;100.00;100991.17;105681;1257;62699;-56
2023/02/17 00:37:46;;;;;;;17.00;11.00;;;;;;;-5.19;100.00;100989.14;105719;1253;60945;-56
2023/02/17 00:40:16;;;;;;;19.10;11.10;;;;;;;-5.16;100.00;100989.02;105509;1254;74275;-57
2023/02/17 00:42:46;;;;;;;18.40;10.40;;;;;;;-5.13;100.00;100993.82;105769;1254;67721;-54
2023/02/17 00:45:15;;;;;;;20.50;12.20;;;;;;;-5.11;100.00;100996.43;105672;1253;74098;-55
2023/02/17 00:47:45;;;;;;;16.70;10.90;;;;;;;-5.11;100.00;100990.52;105772;1253;60450;-55
2023/02/17 00:50:16;;;;;;;26.80;12.60;;;;;;;-5.11;100.00;100985.93;105977;1253;61016;-56
2023/02/17 00:52:45;;;;;;;30.10;16.90;;;;;;;-5.10;100.00;100985.40;105623;1260;74914;-54
2023/02/17 00:55:14;;;;;;;26.10;16.00;;;;;;;-5.13;100.00;100979.89;105777;1257;68660;-54
2023/02/17 00:57:42;;;;;;;30.50;17.40;;;;;;;-5.24;100.00;100982.55;105798;1254;73187;-54
2023/02/17 01:00:12;;;;;;;27.10;15.20;;;;;;;-5.37;100.00;100976.35;105982;1254;60852;-55
2023/02/17 01:02:41;;;;;;;26.10;15.30;;;;;;;-5.49;100.00;100978.85;105919;1257;61723;-55
2023/02/17 01:05:10;;;;;;;22.70;14.10;;;;;;;-5.56;100.00;100977.98;105595;1254;75493;-55
2023/02/17 01:07:40;;;;;;;31.10;16.20;;;;;;;-5.59;100.00;100979.63;105705;1257;67754;-55
2023/02/17 01:10:09;;;;;;;26.80;15.50;;;;;;;-5.61;100.00;100980.38;105783;1254;74553;-56
2023/02/17 01:12:38;;;;;;;25.10;15.10;;;;;;;-5.61;100.00;100981.06;105756;1253;60930;-55
2023/02/17 01:15:07;;;;;;;28.40;15.90;;;;;;;-5.59;100.00;100984.36;105745;1256;60579;-55
2023/02/17 01:17:37;;;;;;;23.40;14.20;;;;;;;-5.57;100.00;100987.48;105616;1255;75436;-57
2023/02/17 01:20:06;;;;;;;20.90;13.30;;;;;;;-5.54;100.00;100985.02;105876;1257;68243;-57
2023/02/17 01:22:38;;;;;;;27.10;14.70;;;;;;;-5.52;100.00;100982.23;105496;1257;73205;-55
2023/02/17 01:25:08;;;;;;;24.30;14.90;;;;;;;-5.52;100.00;100983.55;105674;1254;62601;-54
2023/02/17 01:27:37;;;;;;;24.90;15.50;;;;;;;-5.52;100.00;100981.23;105792;1253;61836;-57
2023/02/17 01:30:06;;;;;;;23.70;13.50;;;;;;;-5.53;100.00;100976.31;105827;1257;75222;-56
2023/02/17 01:32:36;;;;;;;21.80;13.40;;;;;;;-5.52;100.00;100976.98;105613;1254;68737;-55
2023/02/17 01:35:04;;;;;;;26.00;14.90;;;;;;;-5.53;100.00;100970.73;105502;1254;74123;-55
2023/02/17 01:37:35;;;;;;;21.20;12.60;;;;;;;-5.52;100.00;100968.67;105585;1259;61892;-56
2023/02/17 01:40:04;;;;;;;26.30;13.80;;;;;;;-5.51;100.00;100974.74;105516;1257;60445;-54
2023/02/17 01:42:33;;;;;;;27.00;14.10;;;;;;;-5.51;100.00;100974.38;105734;1254;74616;-54
2023/02/17 01:45:16;;;;;;;26.40;16.60;;;;;;;-5.50;100.00;100975.84;105759;1257;68569;-53
2023/02/17 01:47:52;;;;;;;30.10;16.30;;;;;;;-5.51;100.00;100978.42;105769;1258;72437;-57
2023/02/17 01:50:23;;;;;;;26.40;15.20;;;;;;;-5.52;100.00;100973.73;105702;1253;60537;-55
2023/02/17 01:52:52;;;;;;;20.10;11.40;;;;;;;-5.52;100.00;100971.54;105718;1257;61131;-55
2023/02/17 01:55:20;;;;;;;19.00;10.90;;;;;;;-5.51;100.00;100967.25;105585;1254;74115;-55
2023/02/17 01:57:51;;;;;;;16.50;10.30;;;;;;;-5.49;100.00;100967.18;105682;1260;67599;-55
2023/02/17 02:00:21;;;;;;;15.00;9.10;;;;;;;-5.45;100.00;100963.80;105746;1257;73037;-54
2023/02/17 02:02:53;;;;;;;16.40;10.00;;;;;;;-5.40;100.00;100960.71;105843;1255;61711;-56
2023/02/17 02:05:23;;;;;;;13.30;8.30;;;;;;;-5.33;100.00;100966.20;105437;1253;61172;-55
2023/02/17 02:07:51;;;;;;;14.90;9.00;;;;;;;-5.27;100.00;100963.39;105822;1253;74421;-58
2023/02/17 02:10:20;;;;;;;14.70;8.40;;;;;;;-5.22;100.00;100965.38;105520;1260;66931;-55
2023/02/17 02:12:49;;;;;;;23.10;13.00;;;;;;;-5.15;100.00;100967.45;105740;1253;74096;-55
2023/02/17 02:15:21;;;;;;;26.30;14.30;;;;;;;-5.11;100.00;100965.10;105553;1257;62220;-54
2023/02/17 02:17:58;;;;;;;24.90;13.90;;;;;;;-5.17;100.00;100966.70;105383;1254;61897;-57
2023/02/17 02:20:40;;;;;;;21.70;13.40;;;;;;;-5.25;100.00;100965.19;105804;1254;74388;-57
2023/02/17 02:23:28;;;;;;;22.90;13.40;;;;;;;-5.34;100.00;100963.34;105780;1257;68522;-54
2023/02/17 02:26:08;;;;;;;22.90;13.70;;;;;;;-5.39;100.00;100965.23;105662;1257;73930;-55
2023/02/17 02:29:02;;;;;;;22.30;14.20;;;;;;;-5.40;100.00;100965.48;105554;1260;60611;-56
2023/02/17 02:31:50;;;;;;;21.60;13.20;;;;;;;-5.41;100.00;100966.38;105532;1257;61676;-57
2023/02/17 02:34:23;;;;;;;24.90;13.30;;;;;;;-5.43;100.00;100966.41;105360;1253;74333;-56
2023/02/17 02:36:55;;;;;;;24.20;13.10;;;;;;;-5.42;100.00;100967.91;105843;1253;67958;-55
2023/02/17 02:39:27;;;;;;;22.20;13.30;;;;;;;-5.42;100.00;100967.39;105476;1254;74237;-55
2023/02/17 02:41:58;;;;;;;17.80;10.50;;;;;;;-5.40;100.00;100965.62;105500;1254;61031;-55
2023/02/17 02:44:28;;;;;;;26.40;15.90;;;;;;;-5.38;100.00;100962.16;105429;1253;61802;-57
2023/02/17 02:47:02;;;;;;;26.20;14.70;;;;;;;-5.37;100.00;100958.41;105744;1259;74092;-58
2023/02/17 02:49:34;;;;;;;23.20;14.00;;;;;;;-5.35;100.00;100961.54;105425;1254;68332;-55
2023/02/17 02:52:13;;;;;;;23.90;14.20;;;;;;;-5.35;100.00;100959.30;105460;1254;74273;-55
2023/02/17 02:54:53;;;;;;;25.60;14.40;;;;;;;-5.33;100.00;100962.98;105678;1259;61027;-55
2023/02/17 02:57:44;;;;;;;24.90;14.40;;;;;;;-5.31;100.00;100962.71;105511;1254;61681;-54
2023/02/17 03:00:28;;;;;;;34.30;17.80;;;;;;;-5.30;100.00;100962.66;105800;1253;75064;-55
2023/02/17 03:03:02;;;;;;;27.50;15.00;;;;;;;-5.29;100.00;100962.46;105929;1253;68744;-56
2023/02/17 03:05:38;;;;;;;25.70;14.70;;;;;;;-5.29;100.00;100956.70;105390;1253;74840;-56
2023/02/17 03:08:16;;;;;;;24.90;14.40;;;;;;;-5.30;100.00;100955.23;105606;1254;61118;-57
2023/02/17 03:10:50;;;;;;;25.90;15.70;;;;;;;-5.32;100.00;100957.52;105408;1253;61912;-55
2023/02/17 03:13:19;;;;;;;27.60;15.10;;;;;;;-5.33;100.00;100952.95;105258;1260;75215;-57
2023/02/17 03:15:48;;;;;;;28.90;17.00;;;;;;;-5.34;100.00;100954.39;105610;1260;69002;-55
2023/02/17 03:18:17;;;;;;;29.00;18.10;;;;;;;-5.36;100.00;100952.08;105685;1254;73696;-55
2023/02/17 03:20:52;;;;;;;27.40;16.60;;;;;;;-5.38;100.00;100950.27;105744;1257;61791;-55
2023/02/17 03:23:20;;;;;;;29.50;16.20;;;;;;;-5.41;100.00;100949.91;105439;1260;60603;-57
2023/02/17 03:25:49;;;;;;;30.20;17.20;;;;;;;-5.42;100.00;100947.58;105641;1258;74926;-56
2023/02/17 03:28:18;;;;;;;26.80;16.20;;;;;;;-5.40;100.00;100950.38;105764;1258;68436;-55
2023/02/17 03:30:47;;;;;;;30.50;17.30;;;;;;;-5.38;100.00;100945.05;105480;1253;74202;-55
2023/02/17 03:33:16;;;;;;;26.10;15.90;;;;;;;-5.39;100.00;100942.89;105898;1258;60790;-56
2023/02/17 03:35:45;;;;;;;27.20;18.00;;;;;;;-5.39;100.00;100941.39;105758;1254;60789;-56
2023/02/17 03:38:13;;;;;;;29.60;17.60;;;;;;;-5.41;100.00;100940.95;105798;1254;75620;-56
2023/02/17 03:40:42;;;;;;;29.00;16.60;;;;;;;-5.42;100.00;100942.66;105520;1259;67304;-56
2023/02/17 03:43:10;;;;;;;25.10;15.50;;;;;;;-5.41;100.00;100944.00;105927;1257;74109;-58
2023/02/17 03:45:38;;;;;;;29.10;18.10;;;;;;;-5.40;100.00;100944.64;105777;1257;60473;-54
2023/02/17 03:48:09;;;;;;;33.50;18.40;;;;;;;-5.38;100.00;100942.00;105770;1255;60548;-54
2023/02/17 03:50:39;;;;;;;26.40;16.40;;;;;;;-5.37;100.00;100944.52;105788;1254;74736;-54
2023/02/17 03:53:07;;;;;;;34.00;20.40;;;;;;;-5.39;100.00;100941.04;105698;1256;68632;-56
2023/02/17 03:55:36;;;;;;;60.20;33.50;;;;;;;-5.42;100.00;100942.17;105283;1254;74842;-55
2023/02/17 03:58:05;;;;;;;55.40;32.50;;;;;;;-5.45;100.00;100938.41;105584;1257;62288;-56
2023/02/17 04:00:34;;;;;;;51.70;28.10;;;;;;;-5.48;100.00;100938.52;105730;1257;60312;-56
2023/02/17 04:03:05;;;;;;;37.00;23.20;;;;;;;-5.52;100.00;100931.73;105945;1254;73382;-58
2023/02/17 04:05:34;;;;;;;33.60;19.90;;;;;;;-5.55;100.00;100931.35;105834;1253;68801;-56
2023/02/17 04:08:03;;;;;;;29.80;19.30;;;;;;;-5.57;100.00;100931.95;105698;1257;73566;-57
2023/02/17 04:10:32;;;;;;;25.80;15.90;;;;;;;-5.57;100.00;100932.48;105686;1253;62496;-55
2023/02/17 04:13:02;;;;;;;29.90;17.40;;;;;;;-5.58;100.00;100934.91;105722;1253;60824;-54
2023/02/17 04:15:36;;;;;;;27.00;16.50;;;;;;;-5.63;100.00;100938.29;105588;1258;74398;-54
2023/02/17 04:18:05;;;;;;;25.30;15.90;;;;;;;-5.65;100.00;100939.04;105819;1254;68728;-57
2023/02/17 04:20:34;;;;;;;29.30;16.80;;;;;;;-5.68;100.00;100938.99;105722;1254;74425;-55
2023/02/17 04:23:03;;;;;;;27.60;16.10;;;;;;;-5.68;100.00;100935.98;105477;1257;61784;-55
2023/02/17 04:25:35;;;;;;;25.40;15.10;;;;;;;-5.70;100.00;100934.17;105790;1254;60466;-55
2023/02/17 04:28:04;;;;;;;29.50;17.10;;;;;;;-5.71;100.00;100936.92;105746;1255;74981;-55
2023/02/17 04:30:33;;;;;;;31.60;17.50;;;;;;;-5.74;100.00;100934.50;105457;1253;68495;-56
2023/02/17 04:33:02;;;;;;;29.60;17.40;;;;;;;-5.74;100.00;100936.53;105677;1254;74062;-57
2023/02/17 04:35:31;;;;;;;29.10;16.80;;;;;;;-5.74;100.00;100934.52;105510;1254;60846;-55
2023/02/17 04:38:01;;;;;;;30.10;17.20;;;;;;;-5.72;100.00;100932.75;105678;1257;60878;-56
2023/02/17 04:40:30;;;;;;;29.90;16.10;;;;;;;-5.68;100.00;100934.25;105749;1257;75191;-55
2023/02/17 04:43:00;;;;;;;32.70;18.60;;;;;;;-5.63;100.00;100929.34;105742;1254;68617;-55
2023/02/17 04:45:28;;;;;;;34.60;19.10;;;;;;;-5.60;100.00;100930.08;105624;1254;73181;-55
2023/02/17 04:47:57;;;;;;;28.10;16.90;;;;;;;-5.56;100.00;100931.24;105781;1257;61732;-56
2023/02/17 04:50:26;;;;;;;26.50;16.90;;;;;;;-5.52;100.00;100931.08;105719;1257;61573;-56
2023/02/17 04:52:54;;;;;;;27.50;16.60;;;;;;;-5.47;100.00;100927.98;105794;1254;75528;-57
2023/02/17 04:55:23;;;;;;;27.70;15.70;;;;;;;-5.43;100.00;100930.49;105929;1254;67488;-57
2023/02/17 04:57:52;;;;;;;26.10;15.70;;;;;;;-5.37;100.00;100931.10;105864;1257;73841;-56
2023/02/17 05:00:21;;;;;;;28.70;16.30;;;;;;;-5.31;100.00;100929.34;105731;1257;62349;-56
2023/02/17 05:02:50;;;;;;;28.40;16.60;;;;;;;-5.23;100.00;100924.42;106065;1257;60415;-57
2023/02/17 05:05:20;;;;;;;25.30;15.70;;;;;;;-5.16;100.00;100926.49;106010;1256;74644;-58
2023/02/17 05:07:49;;;;;;;32.00;17.60;;;;;;;-5.07;100.00;100927.46;105696;1257;67859;-56
2023/02/17 05:10:18;;;;;;;89.10;45.80;;;;;;;-4.97;100.00;100928.55;105857;1253;74201;-54
2023/02/17 05:12:46;;;;;;;60.00;30.50;;;;;;;-4.86;100.00;100933.17;105752;1254;61089;-54
2023/02/17 05:15:19;;;;;;;60.00;32.60;;;;;;;-4.75;100.00;100933.70;105721;1253;60916;-56
2023/02/17 05:17:48;;;;;;;31.30;18.70;;;;;;;-4.67;100.00;100934.66;105569;1253;74006;-57
2023/02/17 05:20:17;;;;;;;32.20;18.10;;;;;;;-4.63;100.00;100933.66;105807;1258;67719;-56
2023/02/17 05:22:45;;;;;;;31.20;19.20;;;;;;;-4.64;100.00;100933.00;105870;1253;74190;-56
2023/02/17 05:25:14;;;;;;;29.00;17.10;;;;;;;-4.63;100.00;100934.17;105702;1253;61251;-56
2023/02/17 05:27:44;;;;;;;27.80;15.90;;;;;;;-4.61;100.00;100940.20;105777;1254;60665;-54
2023/02/17 05:30:13;;;;;;;27.40;17.30;;;;;;;-4.60;100.00;100941.67;105859;1253;75391;-55
2023/02/17 05:32:41;;;;;;;29.60;17.60;;;;;;;-4.58;100.00;100937.98;105797;1254;68274;-55
2023/02/17 05:35:10;;;;;;;30.40;19.30;;;;;;;-4.55;100.00;100934.46;105753;1254;73430;-55
2023/02/17 05:37:39;;;;;;;27.70;16.70;;;;;;;-4.54;100.00;100931.54;105981;1259;62350;-57
2023/02/17 05:40:08;;;;;;;32.70;19.00;;;;;;;-4.52;100.00;100932.83;105720;1259;61867;-55
2023/02/17 05:42:37;;;;;;;32.10;20.00;;;;;;;-4.48;100.00;100930.79;105798;1253;75111;-55
2023/02/17 05:45:06;;;;;;;33.90;21.30;;;;;;;-4.43;100.00;100932.05;105790;1254;68265;-54
2023/02/17 05:47:35;;;;;;;33.30;20.90;;;;;;;-4.36;100.00;100929.05;105991;1258;73862;-57
2023/02/17 05:50:05;;;;;;;31.60;20.00;;;;;;;-4.32;100.00;100924.95;105761;1253;61454;-56
2023/02/17 05:52:33;;;;;;;31.70;20.00;;;;;;;-4.29;100.00;100923.77;105919;1254;60517;-56
2023/02/17 05:55:03;;;;;;;31.10;20.30;;;;;;;-4.23;100.00;100921.42;105865;1259;75311;-57
2023/02/17 05:57:32;;;;;;;31.60;18.90;;;;;;;-4.16;100.00;100925.52;106259;1258;68288;-59
2023/02/17 06:00:01;;;;;;;37.30;21.30;;;;;;;-4.09;100.00;100929.45;105533;1254;73630;-55
2023/02/17 06:02:39;;;;;;;36.80;22.70;;;;;;;-3.99;100.00;100929.98;105697;1257;61720;-55
2023/02/17 06:05:08;;;;;;;35.50;21.50;;;;;;;-3.87;100.00;100929.27;105957;1254;62201;-55
2023/02/17 06:07:38;;;;;;;35.30;21.80;;;;;;;-3.77;100.00;100925.20;105943;1258;74732;-58
2023/02/17 06:10:11;;;;;;;36.90;22.80;;;;;;;-3.67;100.00;100925.40;105765;1254;67596;-57
2023/02/17 06:12:39;;;;;;;36.40;22.60;;;;;;;-3.60;100.00;100923.34;105756;1258;73687;-57
2023/02/17 06:15:08;;;;;;;42.30;24.10;;;;;;;-3.52;100.00;100922.92;105740;1253;62766;-58
2023/02/17 06:17:38;;;;;;;35.00;19.60;;;;;;;-3.46;100.00;100923.81;105925;1255;61063;-57
2023/02/17 06:20:08;;;;;;;33.00;20.90;;;;;;;-3.32;100.00;100921.45;105637;1258;74795;-55
2023/02/17 06:22:36;;;;;;;32.20;19.70;;;;;;;-3.15;100.00;100923.98;105596;1254;67497;-55
2023/02/17 06:25:05;;;;;;;31.60;17.70;;;;;;;-3.02;100.00;100924.13;105707;1253;73227;-55
2023/02/17 06:27:34;;;;;;;28.10;18.40;;;;;;;-2.93;100.00;100926.73;105944;1259;62982;-56
2023/02/17 06:30:03;;;;;;;25.70;16.40;;;;;;;-2.86;100.00;100922.79;105682;1259;60444;-55
2023/02/17 06:32:33;;;;;;;27.30;16.70;;;;;;;-2.77;100.00;100920.95;105924;1255;74405;-55
2023/02/17 06:35:03;;;;;;;27.70;16.40;;;;;;;-2.67;100.00;100922.81;105852;1253;68607;-55
2023/02/17 06:37:31;;;;;;;27.40;16.80;;;;;;;-2.59;100.00;100924.78;106019;1254;73127;-58
2023/02/17 06:40:01;;;;;;;24.10;16.00;;;;;;;-2.47;100.00;100919.04;105767;1258;61508;-56
2023/02/17 06:42:30;;;;;;;26.10;15.70;;;;;;;-2.38;100.00;100914.30;105831;1259;60441;-56
2023/02/17 06:45:02;;;;;;;27.00;17.00;;;;;;;-2.30;100.00;100909.73;105796;1259;74838;-56
2023/02/17 06:47:32;;;;;;;27.60;17.90;;;;;;;-2.17;100.00;100907.17;105741;1258;68301;-58
2023/02/17 06:50:01;;;;;;;24.70;16.70;;;;;;;-2.03;100.00;100906.22;105651;1257;74273;-57
2023/02/17 06:52:29;;;;;;;22.80;15.70;;;;;;;-1.93;100.00;100905.48;105631;1254;62535;-56
2023/02/17 06:54:58;;;;;;;24.40;16.00;;;;;;;-1.84;100.00;100907.01;105790;1254;61852;-56
2023/02/17 06:57:27;;;;;;;27.20;16.20;;;;;;;-1.74;100.00;100909.14;105910;1259;74746;-59
2023/02/17 06:59:55;;;;;;;21.80;14.80;;;;;;;-1.64;100.00;100904.80;105928;1254;68130;-55
2023/02/17 07:02:25;;;;;;;24.10;14.90;;;;;;;-1.58;100.00;100904.67;105826;1253;74238;-55
2023/02/17 07:04:54;;;;;;;24.40;16.90;;;;;;;-1.53;100.00;100905.05;105652;1253;61466;-55
2023/02/17 07:07:23;;;;;;;21.60;13.90;;;;;;;-1.50;100.00;100903.50;105966;1258;60755;-56
2023/02/17 07:09:52;;;;;;;22.40;13.90;;;;;;;-1.53;100.00;100903.15;105682;1254;75558;-56
2023/02/17 07:12:22;;;;;;;23.70;15.30;;;;;;;-1.53;100.00;100896.72;105785;1254;68465;-56
2023/02/17 07:14:52;;;;;;;25.30;16.60;;;;;;;-1.51;100.00;100890.95;105646;1254;73411;-59
2023/02/17 07:17:20;;;;;;;25.20;15.70;;;;;;;-1.47;100.00;100889.17;105824;1253;60460;-61
2023/02/17 07:19:49;;;;;;;25.20;15.70;;;;;;;-1.41;100.00;100895.45;105632;1253;61013;-56
2023/02/17 07:22:18;;;;;;;20.00;13.50;;;;;;;-1.35;100.00;100887.93;105616;1257;75305;-54
2023/02/17 07:24:46;;;;;;;22.20;14.20;;;;;;;-1.29;100.00;100887.76;105874;1254;67452;-59
2023/02/17 07:27:15;;;;;;;20.90;13.50;;;;;;;-1.27;100.00;100892.75;105947;1254;72732;-57
2023/02/17 07:29:43;;;;;;;24.50;15.80;;;;;;;-1.24;100.00;100889.51;105406;1254;60914;-58
2023/02/17 07:32:12;;;;;;;19.20;13.30;;;;;;;-1.17;100.00;100888.75;105701;1257;60417;-57
2023/02/17 07:34:41;;;;;;;21.50;13.60;;;;;;;-1.09;100.00;100881.48;105878;1258;75252;-61
2023/02/17 07:37:10;;;;;;;24.50;14.50;;;;;;;-1.05;100.00;100883.63;105640;1254;67453;-59
2023/02/17 07:39:38;;;;;;;21.30;13.90;;;;;;;-1.04;100.00;100887.61;105524;1253;73399;-58
2023/02/17 07:42:08;;;;;;;22.20;13.20;;;;;;;-1.00;100.00;100885.99;105755;1253;60826;-56
2023/02/17 07:44:37;;;;;;;20.30;12.80;;;;;;;-0.93;100.00;100884.77;106038;1257;60814;-59
2023/02/17 07:47:06;;;;;;;19.50;12.90;;;;;;;-0.93;100.00;100880.67;105712;1258;74756;-57
2023/02/17 07:49:34;;;;;;;18.10;12.30;;;;;;;-0.97;100.00;100881.45;105856;1259;67802;-62
2023/02/17 07:52:03;;;;;;;21.60;16.10;;;;;;;-1.00;100.00;100884.78;105789;1253;74233;-58
2023/02/17 07:54:32;;;;;;;20.80;13.50;;;;;;;-0.95;100.00;100880.09;105693;1254;62697;-58
2023/02/17 07:57:01;;;;;;;21.00;12.50;;;;;;;-0.88;100.00;100879.35;105814;1258;60425;-56
2023/02/17 07:59:30;;;;;;;18.90;13.00;;;;;;;-0.82;100.00;100881.31;105958;1258;74159;-59
2023/02/17 08:01:58;;;;;;;12.80;8.00;;;;;;;-0.71;100.00;100882.39;105653;1254;68465;-58
2023/02/17 08:04:27;;;;;;;20.00;16.20;;;;;;;-0.63;100.00;100880.52;105630;1259;74224;-58
2023/02/17 08:06:56;;;;;;;15.50;9.20;;;;;;;-0.56;100.00;100878.21;105719;1258;60435;-57
2023/02/17 08:15:06;;;;;;;27.10;22.20;;;;;;;-0.21;100.00;100869.30;105630;1259;68575;-57
2023/02/17 08:17:36;;;;;;;41.20;28.70;;;;;;;-0.13;100.00;100868.09;105584;1254;73171;-56
2023/02/17 08:20:05;;;;;;;19.70;13.60;;;;;;;-0.03;100.00;100870.02;105708;1254;60447;-59
2023/02/17 08:22:38;;;;;;;15.80;10.00;;;;;;;0.08;100.00;100870.01;105576;1254;61887;-56
2023/02/17 08:25:07;;;;;;;12.30;7.80;;;;;;;0.15;100.00;100869.68;105441;1254;75490;-56
2023/02/17 08:27:36;;;;;;;15.50;9.10;;;;;;;0.17;100.00;100864.26;105735;1254;68448;-55
2023/02/17 08:30:05;;;;;;;16.00;9.40;;;;;;;0.14;100.00;100858.97;105821;1254;73296;-56
2023/02/17 08:32:33;;;;;;;12.80;7.80;;;;;;;0.08;100.00;100861.67;105531;1253;61003;-57
2023/02/17 08:35:02;;;;;;;14.70;8.00;;;;;;;-0.03;100.00;100863.22;105938;1254;61919;-59
2023/02/17 08:37:31;;;;;;;11.60;7.10;;;;;;;-0.09;100.00;100857.98;105786;1254;74206;-55
2023/02/17 08:40:00;;;;;;;11.60;7.00;;;;;;;-0.14;100.00;100864.43;105614;1260;68613;-55
2023/02/17 08:42:30;;;;;;;14.10;7.30;;;;;;;-0.25;100.00;100861.08;105642;1259;73253;-56
2023/02/17 08:45:02;;;;;;;11.90;7.00;;;;;;;-0.38;100.00;100860.48;105634;1260;60500;-55
2023/02/17 08:47:31;;;;;;;11.70;6.90;;;;;;;-0.49;100.00;100865.11;105630;1254;61916;-56
2023/02/17 08:50:01;;;;;;;13.80;6.60;;;;;;;-0.61;100.00;100868.95;105859;1255;75372;-54
2023/02/17 08:52:30;;;;;;;15.90;8.50;;;;;;;-0.73;100.00;100864.58;105608;1254;67760;-56
2023/02/17 08:55:03;;;;;;;16.50;8.30;;;;;;;-0.79;100.00;100862.40;105701;1254;74434;-54
2023/02/17 08:57:33;;;;;;;12.00;5.60;;;;;;;-0.82;100.00;100867.33;105716;1259;60561;-59
2023/02/17 09:00:06;;;;;;;13.10;6.20;;;;;;;-0.76;100.00;100871.09;105604;1254;60517;-55
2023/02/17 09:02:36;;;;;;;9.90;6.70;;;;;;;-0.66;100.00;100866.39;105467;1261;75442;-54
2023/02/17 09:05:04;;;;;;;112.20;86.00;;;;;;;-0.56;100.00;100865.09;105676;1259;68972;-55
2023/02/17 09:07:33;;;;;;;60.70;49.20;;;;;;;-0.48;100.00;100866.08;105776;1259;74060;-60
2023/02/17 09:10:04;;;;;;;424.70;275.90;;;;;;;-0.37;100.00;100867.29;105713;1259;60450;-55
2023/02/17 09:12:36;;;;;;;960.70;516.10;;;;;;;-0.31;100.00;100866.50;105863;1259;60674;-56
2023/02/17 09:15:06;;;;;;;111.50;64.40;;;;;;;-0.25;100.00;100860.20;105562;1258;74884;-54
2023/02/17 09:17:38;;;;;;;147.30;76.50;;;;;;;-0.17;100.00;100858.14;106046;1258;68400;-58
2023/02/17 09:20:08;;;;;;;128.80;79.30;;;;;;;-0.05;100.00;100854.29;105749;1258;72325;-55
2023/02/17 09:22:52;;;;;;;20.00;12.90;;;;;;;0.07;100.00;100851.43;105722;1254;60600;-55
2023/02/17 09:25:22;;;;;;;80.40;38.00;;;;;;;0.17;100.00;100846.36;105914;1259;60738;-55
2023/02/17 09:27:51;;;;;;;291.30;97.10;;;;;;;0.22;100.00;100841.72;105709;1255;75418;-55
2023/02/17 09:30:20;;;;;;;164.50;58.40;;;;;;;0.25;100.00;100837.09;105874;1259;67379;-55
2023/02/17 09:32:49;;;;;;;70.50;28.50;;;;;;;0.29;100.00;100835.61;105835;1259;73264;-56
2023/02/17 09:35:19;;;;;;;190.50;96.60;;;;;;;0.40;100.00;100830.91;105867;1254;62288;-56
2023/02/17 09:37:48;;;;;;;162.30;143.60;;;;;;;0.46;100.00;100827.48;105813;1259;61116;-55
2023/02/17 09:40:23;;;;;;;112.70;100.30;;;;;;;0.53;100.00;100824.77;105807;1257;75395;-54
2023/02/17 09:42:51;;;;;;;19.00;13.60;;;;;;;0.56;100.00;100817.75;105516;1260;67758;-55
2023/02/17 09:45:33;;;;;;;12.50;8.60;;;;;;;0.58;100.00;100814.83;105553;1259;72301;-57
2023/02/17 09:48:10;;;;;;;;;;;;;;;0.55;100.00;100810.95;105574;1258;60517;-57
2023/02/17 09:50:42;;;;;;;13.80;8.30;;;;;;;0.49;100.00;100811.84;105995;1255;61076;-58
2023/02/17 09:53:27;;;;;;;14.80;8.70;;;;;;;0.51;100.00;100809.02;105737;1259;75328;-55
2023/02/17 09:55:56;;;;;;;14.90;9.10;;;;;;;0.55;100.00;100811.61;105557;1259;68536;-55
2023/02/17 09:58:26;;;;;;;13.40;8.10;;;;;;;0.59;100.00;100809.68;105559;1254;74553;-56
2023/02/17 10:00:55;;;;;;;14.50;8.70;;;;;;;0.62;100.00;100805.35;105708;1259;60544;-55
2023/02/17 10:03:39;;;;;;;14.30;9.20;;;;;;;0.64;100.00;100795.95;105874;1254;61884;-54
2023/02/17 10:06:18;;;;;;;21.40;11.30;;;;;;;0.70;100.00;100798.61;105862;1259;73488;-57
2023/02/17 10:08:55;;;;;;;18.10;10.80;;;;;;;0.67;100.00;100800.86;105764;1259;68754;-54
2023/02/17 10:11:32;;;;;;;17.40;11.00;;;;;;;0.58;100.00;100795.87;105548;1254;73218;-54
2023/02/17 10:14:09;;;;;;;22.20;11.20;;;;;;;0.45;100.00;100789.73;105624;1260;60878;-55
2023/02/17 10:16:50;;;;;;;17.00;9.10;;;;;;;0.28;100.00;100787.66;105552;1254;61564;-55
2023/02/17 10:19:28;;;;;;;18.00;13.40;;;;;;;0.14;100.00;100790.14;105302;1255;304083;-58
2023/02/17 10:22:10;;;;;;;11.20;7.80;;;;;;;0.11;100.00;100784.83;105628;1260;67177;-55
2023/02/17 10:24:38;;;;;;;;;;;;;;;0.13;100.00;100778.91;105386;1260;74135;-56
2023/02/17 10:27:13;;;;;;;14.10;7.50;;;;;;;0.19;100.00;100783.27;106013;1260;60426;-58
2023/02/17 10:29:42;;;;;;;10.60;6.60;;;;;;;0.20;100.00;100784.56;105857;1258;60904;-55
2023/02/17 10:32:21;;;;;;;10.70;6.70;;;;;;;0.16;100.00;100778.05;105786;1259;75630;-55
2023/02/17 10:35:04;;;;;;;11.70;6.70;;;;;;;0.16;100.00;100774.14;105651;1259;68741;-58
2023/02/17 10:37:53;;;;;;;12.20;6.90;;;;;;;0.08;100.00;100773.47;105749;1258;74310;-56
2023/02/17 10:40:24;;;;;;;11.00;6.20;;;;;;;0.03;100.00;100771.72;106186;1259;60494;-59
2023/02/17 10:42:56;;;;;;;12.00;7.60;;;;;;;0.03;100.00;100768.67;105708;1254;60438;-56
2023/02/17 10:45:33;;;;;;;13.30;8.00;;;;;;;0.06;100.00;100765.89;105574;1258;75307;-56
2023/02/17 10:48:05;;;;;;;15.60;6.80;;;;;;;0.08;100.00;100767.15;105530;1254;68063;-57
2023/02/17 10:50:35;;;;;;;15.20;8.20;;;;;;;0.06;100.00;100763.51;105906;1254;73140;-57
2023/02/17 10:53:19;;;;;;;16.40;8.80;;;;;;;0.09;100.00;100762.58;105573;1259;60425;-55
2023/02/17 10:55:57;;;;;;;18.60;10.60;;;;;;;0.06;100.00;100764.52;105660;1267;60538;-59
2023/02/17 10:58:34;;;;;;;15.10;9.70;;;;;;;-0.00;100.00;100761.02;106038;1260;75459;-58
2023/02/17 11:01:05;;;;;;;21.40;12.70;;;;;;;0.05;100.00;100763.58;105669;1259;68477;-57
2023/02/17 11:03:36;;;;;;;;;;;;;;;0.09;100.00;100762.11;105552;1258;74204;-58
2023/02/17 11:06:21;;;;;;;18.80;9.30;;;;;;;0.13;100.00;100759.06;105838;1259;60543;-55
2023/02/17 11:08:56;;;;;;;18.80;10.90;;;;;;;0.19;100.00;100750.48;105578;1258;61323;-55
2023/02/17 11:11:31;;;;;;;24.80;11.50;;;;;;;0.21;100.00;100745.54;105694;1259;75312;-55
2023/02/17 11:14:05;;;;;;;18.60;10.00;;;;;;;0.29;100.00;100742.27;105681;1257;68558;-54
2023/02/17 11:16:44;;;;;;;16.20;8.70;;;;;;;0.43;100.00;100744.89;105885;1260;72386;-56
2023/02/17 11:19:24;;;;;;;11.40;6.50;;;;;;;0.52;100.00;100736.44;105681;1254;60672;-55